Main page
METAR-TAF:

METAR-TAF

Airports :

Ushuaia, Argentina

Ushuaia – Malvinas Argentinas International Airport

latitude: 54-48S, longitude: 068-19W, elevation: 16 m

Current weather observation

The report was made 29 minutes ago, at 19:00 UTC
Wind 18 kt from the Northwest with gusts up to 32 kt
Temperature 15°C
Humidity 39%
Pressure 987 hPa
Visibility 10 km or more
Scattered clouds at a height of 4000 ft
Scattered clouds at a height of 10000 ft

METAR: SAWH 171900Z 32018G32KT 9999 SCT040 SCT100 15/01 Q0987

Time: 16:29 (19:29 UTC)

Forecast

The report was made 2 hours and 29 minutes ago, at 17:00 UTC
Forecast valid from 17 at 18 UTC to 18 at 18 UTC
Wind 15 kt from the Northwest with gusts up to 25 kt
Visibility 10 km or more
Scattered clouds at a height of 3000 ft
Broken clouds at a height of 9000 ft
light rain showers
Becoming
from 17 at 23 UTC to 18 at 01 UTC
Wind 20 kt from the West with gusts up to 30 kt

TAF: SAWH 171700Z 1718/1818 32015G25KT 9999 -SHRA SCT030 BKN090 TX14/1719Z TN04/17810Z BECMG 1723/1801 27020G30KT

Weather observations and forecasts of more than 4000 airports (METAR and TAF reports).

The available stations are represented by yellow and red dots on the map.

Hover mouse over dot to see the name of the station.

Then click to see weather observations and forecasts.

To change the map : click on the green buttons with a black cross to zoom in, on the green button with a dash to zoom out, or on the green arrows for adjacent maps.


METAR-TAF: